createdAt,value
2023-06-29T00:02:30.701Z,73.15
2023-06-29T00:05:07.356Z,73.16
2023-06-29T00:07:42.697Z,73.50
2023-06-29T00:10:11.956Z,73.07
2023-06-29T00:12:43.522Z,73.35
2023-06-29T00:15:11.065Z,73.36
2023-06-29T00:17:39.826Z,73.48
2023-06-29T00:20:14.108Z,74.54
2023-06-29T00:22:51.643Z,74.39
2023-06-29T00:25:19.474Z,74.23
2023-06-29T00:27:47.491Z,74.21
2023-06-29T00:30:16.256Z,73.90
2023-06-29T00:32:46.349Z,74.16
2023-06-29T00:37:57.379Z,74.68
2023-06-29T00:40:27.696Z,74.83
2023-06-29T00:45:36.835Z,75.61
2023-06-29T00:48:06.700Z,75.65
2023-06-29T00:50:39.007Z,76.37
2023-06-29T00:53:18.829Z,76.58
2023-06-29T00:55:49.333Z,76.48
2023-06-29T00:58:17.347Z,76.66
2023-06-29T01:00:48.723Z,76.84
2023-06-29T01:03:16.002Z,76.81
2023-06-29T01:05:49.721Z,77.26
2023-06-29T01:08:36.063Z,76.86
2023-06-29T01:11:05.251Z,77.22
2023-06-29T01:13:37.731Z,77.26
2023-06-29T01:16:07.647Z,76.56
2023-06-29T01:18:44.464Z,76.77
2023-06-29T01:21:22.104Z,76.63
2023-06-29T01:23:54.304Z,77.22
2023-06-29T01:26:28.382Z,77.46
2023-06-29T01:29:03.137Z,77.79
2023-06-29T01:31:39.747Z,77.83
2023-06-29T01:34:20.658Z,77.71
2023-06-29T01:36:58.165Z,77.25
2023-06-29T01:39:33.759Z,77.51
2023-06-29T01:42:05.974Z,77.67
2023-06-29T01:44:37.421Z,77.72
2023-06-29T01:47:08.222Z,77.56
2023-06-29T01:49:36.292Z,77.81
2023-06-29T01:52:26.641Z,77.81
2023-06-29T01:54:54.574Z,78.22
2023-06-29T01:57:23.735Z,77.31
2023-06-29T01:59:56.233Z,77.67
2023-06-29T02:02:23.261Z,77.41
2023-06-29T02:04:50.059Z,77.80
2023-06-29T02:07:25.414Z,77.72
2023-06-29T02:09:53.482Z,77.28
2023-06-29T02:12:24.153Z,77.02
2023-06-29T02:14:51.355Z,77.23
2023-06-29T02:17:23.891Z,77.23
2023-06-29T02:19:55.637Z,77.24
2023-06-29T02:22:24.158Z,77.68
2023-06-29T02:24:52.424Z,78.01
2023-06-29T02:27:25.081Z,77.93
2023-06-29T02:29:54.624Z,77.69
2023-06-29T02:32:30.822Z,78.04
2023-06-29T02:35:04.529Z,77.56
2023-06-29T02:37:35.116Z,77.91
2023-06-29T02:40:04.104Z,77.42
2023-06-29T02:42:38.112Z,78.45
2023-06-29T02:45:09.896Z,78.15
2023-06-29T02:47:37.749Z,77.51
2023-06-29T02:50:09.624Z,77.85
2023-06-29T02:52:41.883Z,78.09
2023-06-29T02:55:09.202Z,77.67
2023-06-29T02:57:40.973Z,77.91
2023-06-29T03:00:15.621Z,78.14
2023-06-29T03:02:42.519Z,77.91
2023-06-29T03:05:10.072Z,77.83
2023-06-29T03:07:48.638Z,77.87
2023-06-29T03:10:17.497Z,77.84
2023-06-29T03:12:44.444Z,77.98
2023-06-29T03:15:12.084Z,77.90
2023-06-29T03:17:39.177Z,77.62
2023-06-29T03:20:07.781Z,77.65
2023-06-29T03:22:36.592Z,77.42
2023-06-29T03:25:06.189Z,77.45
2023-06-29T03:27:33.492Z,77.63
2023-06-29T03:30:01.233Z,77.71
2023-06-29T03:32:27.902Z,77.13
2023-06-29T03:34:59.056Z,77.30
2023-06-29T03:37:27.418Z,77.78
2023-06-29T03:39:54.280Z,78.00
2023-06-29T03:42:22.127Z,78.54
2023-06-29T03:44:53.010Z,78.90
2023-06-29T03:47:23.270Z,78.38
2023-06-29T03:49:51.584Z,77.91
2023-06-29T03:52:18.328Z,78.07
2023-06-29T03:54:45.298Z,78.37
2023-06-29T03:57:14.916Z,77.47
2023-06-29T03:59:41.544Z,76.93
2023-06-29T04:02:09.889Z,77.44
2023-06-29T04:04:41.908Z,78.17
2023-06-29T04:07:10.588Z,78.49
2023-06-29T04:09:38.563Z,77.88
2023-06-29T04:12:11.385Z,78.16
2023-06-29T04:14:38.017Z,78.39
2023-06-29T04:17:06.533Z,78.00
2023-06-29T04:19:34.131Z,77.20
2023-06-29T04:22:06.354Z,77.99
2023-06-29T04:24:33.440Z,77.93
2023-06-29T04:27:01.544Z,78.13
2023-06-29T04:29:33.487Z,77.43
2023-06-29T04:32:01.450Z,76.70
2023-06-29T04:34:29.616Z,76.46
2023-06-29T04:36:57.975Z,76.67
2023-06-29T04:39:29.298Z,76.67
2023-06-29T04:42:03.057Z,76.79
2023-06-29T04:44:40.218Z,76.35
2023-06-29T04:47:09.009Z,76.19
2023-06-29T04:49:54.102Z,77.00
2023-06-29T04:52:22.812Z,76.93
2023-06-29T04:54:50.436Z,77.19
2023-06-29T05:00:20.852Z,77.26
2023-06-29T05:02:55.427Z,76.46
2023-06-29T05:05:26.489Z,75.88
2023-06-29T05:07:55.288Z,75.25
2023-06-29T05:10:25.525Z,75.26
2023-06-29T05:12:54.287Z,75.08
2023-06-29T05:15:22.872Z,75.01
2023-06-29T05:17:53.142Z,75.12
2023-06-29T05:20:20.948Z,74.64
2023-06-29T05:22:48.804Z,74.19
2023-06-29T05:25:18.111Z,73.58
2023-06-29T05:27:55.560Z,73.76
2023-06-29T05:30:29.513Z,73.05
2023-06-29T05:32:56.465Z,71.79
2023-06-29T05:35:24.472Z,71.46
2023-06-29T05:37:53.996Z,71.63
2023-06-29T05:40:23.297Z,72.16
2023-06-29T05:42:50.075Z,70.93
2023-06-29T05:45:24.814Z,70.36
2023-06-29T05:47:55.904Z,70.08
2023-06-29T05:50:23.090Z,70.09
2023-06-29T05:52:51.304Z,70.04
2023-06-29T05:55:29.483Z,71.13
2023-06-29T05:57:56.094Z,70.08
2023-06-29T06:00:29.014Z,70.87
2023-06-29T06:02:58.290Z,71.00
2023-06-29T06:07:53.919Z,71.36
2023-06-29T06:10:22.276Z,71.55
2023-06-29T06:12:53.640Z,72.00
2023-06-29T06:15:20.301Z,71.52
2023-06-29T06:17:53.042Z,72.10
2023-06-29T06:20:21.039Z,72.56
2023-06-29T06:22:47.655Z,72.24
2023-06-29T06:25:16.584Z,72.38
2023-06-29T06:27:43.282Z,72.44
2023-06-29T06:30:10.344Z,72.20
2023-06-29T06:32:41.387Z,71.61
2023-06-29T06:35:13.540Z,72.22
2023-06-29T06:37:42.104Z,71.14
2023-06-29T06:40:09.941Z,70.91
2023-06-29T06:42:40.042Z,70.44
2023-06-29T06:45:08.874Z,70.04
2023-06-29T06:47:39.345Z,69.80
2023-06-29T06:50:06.970Z,69.37
2023-06-29T06:52:36.043Z,69.41
2023-06-29T06:55:03.310Z,69.72
2023-06-29T06:57:29.972Z,68.54
2023-06-29T06:59:58.089Z,68.75
2023-06-29T07:02:26.625Z,69.43
2023-06-29T07:04:54.609Z,68.92
2023-06-29T07:07:23.863Z,69.70
2023-06-29T07:09:50.518Z,69.43
2023-06-29T07:12:17.480Z,68.27
2023-06-29T07:14:45.207Z,68.58
2023-06-29T07:17:12.248Z,69.04
2023-06-29T07:24:40.258Z,68.21
2023-06-29T07:27:12.403Z,68.49
2023-06-29T07:29:44.192Z,68.40
2023-06-29T07:32:10.840Z,68.06
2023-06-29T07:34:37.530Z,68.09
2023-06-29T07:37:04.850Z,68.00
2023-06-29T07:39:32.016Z,68.45
2023-06-29T07:42:00.038Z,68.07
2023-06-29T07:44:26.745Z,67.30
2023-06-29T07:46:54.545Z,66.68
2023-06-29T07:49:23.068Z,66.80
2023-06-29T07:51:50.333Z,66.30
2023-06-29T07:54:18.235Z,65.08
2023-06-29T07:59:14.894Z,63.09
2023-06-29T08:01:43.220Z,62.31
2023-06-29T08:04:10.529Z,62.51
2023-06-29T08:06:50.834Z,62.59
2023-06-29T08:09:18.555Z,61.50
2023-06-29T08:11:45.368Z,61.57
2023-06-29T08:14:12.029Z,62.58
2023-06-29T08:16:38.806Z,63.29
2023-06-29T08:19:09.657Z,63.89
2023-06-29T08:21:36.380Z,63.71
2023-06-29T08:24:04.615Z,59.82
2023-06-29T08:26:33.575Z,58.18
2023-06-29T08:29:01.603Z,57.62
2023-06-29T08:31:28.496Z,59.07
2023-06-29T08:33:55.262Z,59.87
2023-06-29T08:36:21.991Z,56.86
2023-06-29T08:38:50.224Z,57.08
2023-06-29T08:41:17.842Z,59.74
2023-06-29T08:43:48.675Z,58.85
2023-06-29T08:46:15.443Z,58.61
2023-06-29T08:48:45.893Z,57.04
2023-06-29T08:51:15.259Z,57.11
2023-06-29T08:53:43.082Z,56.66
2023-06-29T08:56:13.667Z,55.82
2023-06-29T08:58:41.104Z,54.73
2023-06-29T09:01:08.601Z,54.92
2023-06-29T09:03:37.483Z,52.78
2023-06-29T09:06:05.007Z,52.00
2023-06-29T09:08:31.862Z,52.77
2023-06-29T09:10:59.254Z,53.46
2023-06-29T09:13:28.938Z,53.04
2023-06-29T09:15:55.974Z,52.99
2023-06-29T09:18:29.728Z,53.28
2023-06-29T09:20:57.630Z,53.78
2023-06-29T09:23:27.220Z,54.15
2023-06-29T09:25:57.245Z,53.54
2023-06-29T09:28:24.122Z,52.29
2023-06-29T09:30:51.468Z,51.31
2023-06-29T09:33:18.292Z,52.06
2023-06-29T09:35:47.018Z,52.33
2023-06-29T09:38:20.565Z,52.06
2023-06-29T09:40:52.592Z,52.56
2023-06-29T09:43:27.667Z,52.62
2023-06-29T09:46:08.240Z,51.59
2023-06-29T09:51:24.369Z,52.19
2023-06-29T09:53:53.174Z,51.54
2023-06-29T09:56:27.876Z,53.53
2023-06-29T09:58:57.712Z,52.52
2023-06-29T10:01:30.140Z,51.11
2023-06-29T10:03:56.995Z,52.08
2023-06-29T10:06:35.046Z,51.90
2023-06-29T10:09:14.356Z,51.93
2023-06-29T10:11:45.696Z,50.73
2023-06-29T10:14:16.293Z,50.93
2023-06-29T10:16:51.312Z,49.82
2023-06-29T10:19:21.965Z,48.86
2023-06-29T10:21:54.203Z,49.44
2023-06-29T10:24:27.120Z,48.70
2023-06-29T10:26:55.406Z,49.61
2023-06-29T10:29:24.286Z,50.56
2023-06-29T10:32:01.385Z,50.96
2023-06-29T10:34:28.338Z,48.20
2023-06-29T10:37:01.048Z,47.39
2023-06-29T10:39:42.876Z,46.58
2023-06-29T10:42:13.685Z,48.02
2023-06-29T10:44:40.778Z,45.38
2023-06-29T10:47:07.536Z,46.61
2023-06-29T10:49:34.641Z,45.12
2023-06-29T10:52:05.848Z,45.12
2023-06-29T10:54:32.722Z,44.85
2023-06-29T10:57:06.857Z,45.47
2023-06-29T10:59:35.800Z,45.35
2023-06-29T11:02:04.544Z,44.66
2023-06-29T11:04:33.253Z,45.02
2023-06-29T11:07:08.724Z,44.89
2023-06-29T11:09:35.905Z,44.86
2023-06-29T11:12:03.041Z,44.85
2023-06-29T11:14:29.950Z,43.95
2023-06-29T11:16:57.013Z,45.14
2023-06-29T11:19:30.137Z,46.03
2023-06-29T11:21:58.198Z,46.17
2023-06-29T11:24:24.892Z,43.67
2023-06-29T11:26:52.173Z,44.02
2023-06-29T11:29:19.170Z,46.19
2023-06-29T11:31:46.177Z,46.27
2023-06-29T11:34:14.140Z,45.23
2023-06-29T11:36:40.855Z,43.72
2023-06-29T11:39:13.288Z,45.74
2023-06-29T11:41:42.082Z,43.79
2023-06-29T11:44:12.464Z,43.31
2023-06-29T11:46:44.531Z,43.25
2023-06-29T11:49:11.615Z,43.44
2023-06-29T11:51:40.505Z,43.63
2023-06-29T11:54:09.015Z,42.81
2023-06-29T11:56:37.476Z,42.32
2023-06-29T11:59:13.597Z,43.30
2023-06-29T12:01:40.804Z,44.69
2023-06-29T12:04:08.901Z,45.26
2023-06-29T12:06:36.092Z,44.29
2023-06-29T12:09:12.956Z,47.05
2023-06-29T12:11:40.986Z,46.90
2023-06-29T12:14:11.177Z,48.63
2023-06-29T12:19:15.215Z,48.90
2023-06-29T12:21:43.038Z,49.75
2023-06-29T12:24:10.165Z,49.53
2023-06-29T12:26:38.686Z,48.48
2023-06-29T12:29:06.100Z,47.56
2023-06-29T12:31:32.719Z,46.82
2023-06-29T12:33:59.949Z,46.63
2023-06-29T12:36:27.394Z,46.88
2023-06-29T12:38:55.443Z,47.71
2023-06-29T12:41:22.146Z,47.52
2023-06-29T12:43:49.430Z,47.26
2023-06-29T12:46:16.083Z,46.47
2023-06-29T12:48:45.130Z,46.65
2023-06-29T12:51:11.870Z,47.98
2023-06-29T12:53:42.556Z,49.32
2023-06-29T12:56:12.479Z,47.93
2023-06-29T12:58:39.215Z,46.61
2023-06-29T13:01:08.619Z,47.13
2023-06-29T13:03:35.416Z,47.79
2023-06-29T13:06:02.113Z,48.64
2023-06-29T13:08:31.025Z,48.32
2023-06-29T13:10:57.801Z,48.87
2023-06-29T13:13:24.719Z,47.40
2023-06-29T13:15:52.815Z,46.54
2023-06-29T13:18:20.561Z,47.40
2023-06-29T13:20:47.197Z,48.06
2023-06-29T13:23:13.877Z,47.20
2023-06-29T13:25:41.064Z,47.06
2023-06-29T13:28:07.708Z,47.84
2023-06-29T13:30:34.445Z,47.76
2023-06-29T13:33:01.143Z,48.47
2023-06-29T13:35:28.037Z,48.42
2023-06-29T13:37:54.633Z,49.42
2023-06-29T13:40:21.256Z,51.21
2023-06-29T13:42:48.246Z,51.02
2023-06-29T13:45:14.840Z,50.04
2023-06-29T13:47:43.262Z,48.88
2023-06-29T13:50:14.272Z,48.51
2023-06-29T13:52:48.562Z,48.65
2023-06-29T13:58:37.169Z,49.62
2023-06-29T14:01:18.154Z,48.29
2023-06-29T14:03:52.203Z,49.96
2023-06-29T14:06:22.120Z,50.58
2023-06-29T14:12:06.408Z,52.35
2023-06-29T14:14:42.024Z,52.47
2023-06-29T14:17:20.670Z,52.47
2023-06-29T14:19:58.808Z,53.04
2023-06-29T14:22:29.358Z,53.31
2023-06-29T14:25:01.280Z,53.83
2023-06-29T14:27:30.375Z,52.79
2023-06-29T14:30:00.945Z,52.31
2023-06-29T14:32:30.935Z,52.90
2023-06-29T14:35:01.153Z,53.43
2023-06-29T14:37:38.209Z,53.81
2023-06-29T14:40:08.305Z,53.12
2023-06-29T14:42:35.221Z,53.76
2023-06-29T14:45:02.330Z,54.21
2023-06-29T14:47:30.485Z,54.42
2023-06-29T14:49:57.356Z,54.52
2023-06-29T14:52:25.326Z,54.87
2023-06-29T14:54:52.054Z,55.07
2023-06-29T14:57:18.798Z,55.73
2023-06-29T14:59:45.434Z,55.00
2023-06-29T15:02:12.063Z,54.17
2023-06-29T15:04:38.625Z,54.32
2023-06-29T15:07:05.444Z,54.32
2023-06-29T15:09:32.240Z,54.88
2023-06-29T15:11:59.024Z,53.51
2023-06-29T15:14:26.878Z,53.07
2023-06-29T15:16:53.582Z,53.41
2023-06-29T15:19:20.303Z,54.32
2023-06-29T15:21:47.191Z,55.18
2023-06-29T15:24:14.146Z,56.07
2023-06-29T15:26:42.341Z,55.33
2023-06-29T15:29:08.956Z,55.26
2023-06-29T15:31:35.885Z,56.51
2023-06-29T15:34:03.358Z,55.71
2023-06-29T15:36:30.021Z,56.21
2023-06-29T15:38:56.635Z,56.49
2023-06-29T15:41:23.387Z,56.10
2023-06-29T15:43:50.039Z,56.09
2023-06-29T15:46:17.860Z,56.53
2023-06-29T15:48:44.691Z,57.40
2023-06-29T15:51:11.907Z,57.17
2023-06-29T15:53:38.733Z,57.65
2023-06-29T15:56:05.338Z,57.38
2023-06-29T15:58:31.967Z,58.91
2023-06-29T16:00:58.564Z,58.64
2023-06-29T16:03:25.358Z,58.88
2023-06-29T16:05:52.087Z,58.20
2023-06-29T16:08:18.974Z,58.36
2023-06-29T16:11:00.284Z,57.38
2023-06-29T16:13:26.912Z,56.63
2023-06-29T16:15:53.682Z,56.51
2023-06-29T16:18:26.295Z,58.00
2023-06-29T16:20:53.032Z,57.28
2023-06-29T16:23:19.628Z,56.67
2023-06-29T16:25:46.485Z,56.74
2023-06-29T16:28:13.374Z,56.04
2023-06-29T16:30:40.238Z,56.04
2023-06-29T16:33:06.977Z,56.41
2023-06-29T16:35:33.590Z,56.03
2023-06-29T16:38:02.584Z,55.95
2023-06-29T16:40:29.254Z,55.81
2023-06-29T16:42:55.882Z,55.99
2023-06-29T16:45:22.655Z,55.87
2023-06-29T16:47:49.840Z,55.68
2023-06-29T16:50:16.479Z,57.05
2023-06-29T16:52:43.103Z,56.71
2023-06-29T16:55:09.914Z,56.13
2023-06-29T16:57:36.616Z,55.49
2023-06-29T17:00:04.020Z,55.55
2023-06-29T17:02:30.642Z,55.83
2023-06-29T17:04:57.345Z,55.88
2023-06-29T17:07:27.079Z,55.67
2023-06-29T17:09:53.686Z,55.10
2023-06-29T17:12:20.460Z,54.99
2023-06-29T17:14:47.315Z,56.05
2023-06-29T17:17:14.065Z,55.31
2023-06-29T17:19:41.001Z,55.45
2023-06-29T17:22:11.481Z,56.01
2023-06-29T17:24:39.025Z,55.40
2023-06-29T17:27:06.380Z,54.35
2023-06-29T17:29:33.069Z,53.89
2023-06-29T17:32:01.091Z,54.46
2023-06-29T17:34:27.773Z,54.55
2023-06-29T17:36:54.414Z,54.85
2023-06-29T17:39:22.866Z,53.46
2023-06-29T17:41:49.450Z,53.62
2023-06-29T17:44:16.396Z,53.82
2023-06-29T17:46:43.203Z,54.27
2023-06-29T17:49:09.946Z,54.84
2023-06-29T17:51:36.608Z,54.57
2023-06-29T17:54:04.884Z,54.92
2023-06-29T17:56:31.568Z,54.73
2023-06-29T17:58:58.354Z,55.72
2023-06-29T18:01:25.088Z,55.66
2023-06-29T18:03:52.039Z,55.37
2023-06-29T18:06:19.603Z,55.06
2023-06-29T18:08:46.726Z,55.82
2023-06-29T18:11:13.608Z,55.53
2023-06-29T18:13:40.266Z,55.04
2023-06-29T18:16:06.969Z,56.01
2023-06-29T18:18:35.135Z,57.21
2023-06-29T18:21:02.798Z,57.58
2023-06-29T18:23:29.518Z,57.63
2023-06-29T18:25:56.247Z,57.71
2023-06-29T18:28:22.908Z,57.68
2023-06-29T18:30:49.610Z,57.90
2023-06-29T18:33:17.247Z,58.41
2023-06-29T18:35:44.397Z,57.79
2023-06-29T18:38:11.571Z,58.33
2023-06-29T18:40:38.185Z,58.20
2023-06-29T18:43:04.867Z,58.15
2023-06-29T18:45:31.940Z,59.04
2023-06-29T18:47:58.773Z,59.40
2023-06-29T18:50:25.533Z,59.60
2023-06-29T18:52:52.607Z,59.47
2023-06-29T18:55:19.301Z,60.13
2023-06-29T18:57:45.968Z,60.09
2023-06-29T19:00:13.065Z,60.27
2023-06-29T19:02:43.576Z,60.38
2023-06-29T19:05:11.378Z,60.24
2023-06-29T19:07:38.369Z,60.14
2023-06-29T19:10:05.492Z,60.41
2023-06-29T19:12:32.166Z,60.19
2023-06-29T19:14:59.014Z,60.37
2023-06-29T19:17:25.878Z,60.00
2023-06-29T19:19:52.615Z,59.35
2023-06-29T19:22:19.239Z,59.94
2023-06-29T19:24:45.886Z,59.30
2023-06-29T19:27:12.479Z,60.24
2023-06-29T19:29:39.155Z,60.54
2023-06-29T19:32:06.937Z,60.15
2023-06-29T19:34:34.576Z,60.44
2023-06-29T19:37:03.654Z,59.75
2023-06-29T19:39:32.017Z,59.31
2023-06-29T19:41:58.795Z,58.86
2023-06-29T19:44:25.535Z,58.91
2023-06-29T19:46:52.332Z,58.96
2023-06-29T19:49:20.107Z,58.79
2023-06-29T19:51:46.842Z,58.17
2023-06-29T19:54:13.692Z,58.79
2023-06-29T19:56:40.694Z,59.32
2023-06-29T19:59:07.805Z,58.82
2023-06-29T20:01:34.755Z,58.80
2023-06-29T20:04:01.745Z,59.32
2023-06-29T20:06:29.265Z,59.36
2023-06-29T20:08:56.175Z,59.28
2023-06-29T20:11:24.056Z,59.53
2023-06-29T20:13:51.406Z,59.33
2023-06-29T20:16:18.227Z,59.84
2023-06-29T20:18:44.982Z,60.37
2023-06-29T20:21:12.985Z,60.79
2023-06-29T20:23:39.683Z,61.67
2023-06-29T20:26:06.484Z,61.55
2023-06-29T20:28:33.160Z,62.14
2023-06-29T20:31:00.139Z,62.17
2023-06-29T20:33:26.908Z,61.92
2023-06-29T20:35:53.653Z,62.84
2023-06-29T20:38:20.341Z,62.99
2023-06-29T20:40:47.148Z,63.41
2023-06-29T20:43:14.619Z,63.18
2023-06-29T20:45:59.734Z,63.39
2023-06-29T20:48:26.503Z,63.95
2023-06-29T20:51:03.727Z,64.29
2023-06-29T20:53:36.274Z,64.63
2023-06-29T20:56:03.613Z,64.60
2023-06-29T20:58:30.323Z,65.09
2023-06-29T21:00:58.117Z,64.77
2023-06-29T21:03:25.984Z,64.14
2023-06-29T21:05:53.304Z,64.33
2023-06-29T21:08:20.319Z,64.83
2023-06-29T21:10:47.200Z,64.83
2023-06-29T21:13:14.144Z,64.79
2023-06-29T21:15:40.915Z,64.37
2023-06-29T21:18:08.237Z,64.15
2023-06-29T21:20:35.971Z,64.37
2023-06-29T21:23:02.779Z,64.54
2023-06-29T21:25:29.615Z,64.77
2023-06-29T21:27:57.017Z,64.77
2023-06-29T21:30:26.180Z,64.25
2023-06-29T21:32:53.164Z,64.50
2023-06-29T21:35:20.541Z,64.29
2023-06-29T21:37:47.547Z,64.19
2023-06-29T21:40:14.308Z,64.86
2023-06-29T21:42:41.038Z,64.81
2023-06-29T21:45:08.156Z,65.16
2023-06-29T21:47:34.907Z,65.43
2023-06-29T21:50:01.621Z,65.29
2023-06-29T21:52:28.334Z,65.57
2023-06-29T21:54:55.011Z,65.58
2023-06-29T21:57:21.842Z,66.28
2023-06-29T21:59:48.526Z,66.25
2023-06-29T22:02:15.310Z,66.62
2023-06-29T22:04:42.342Z,66.83
2023-06-29T22:07:16.376Z,67.53
2023-06-29T22:09:44.067Z,67.48
2023-06-29T22:12:12.892Z,68.15
2023-06-29T22:14:40.039Z,68.37
2023-06-29T22:17:08.488Z,68.11
2023-06-29T22:19:38.185Z,68.28
2023-06-29T22:22:05.423Z,68.34
2023-06-29T22:24:32.068Z,69.08
2023-06-29T22:26:58.763Z,69.56
2023-06-29T22:29:25.429Z,69.78
2023-06-29T22:31:52.264Z,69.79
2023-06-29T22:34:20.881Z,69.95
2023-06-29T22:36:50.800Z,70.10
2023-06-29T22:39:17.717Z,70.82
2023-06-29T22:41:44.372Z,71.36
2023-06-29T22:44:10.985Z,71.61
2023-06-29T22:46:37.767Z,72.17
2023-06-29T22:49:04.411Z,73.22
2023-06-29T22:51:31.125Z,72.95
2023-06-29T22:53:59.101Z,72.94
2023-06-29T22:56:26.052Z,73.19
2023-06-29T22:59:13.218Z,73.38
2023-06-29T23:01:41.397Z,73.29
2023-06-29T23:04:09.374Z,73.72
2023-06-29T23:06:42.362Z,73.83
2023-06-29T23:09:10.202Z,73.99
2023-06-29T23:11:38.230Z,74.52
2023-06-29T23:14:06.178Z,74.60
2023-06-29T23:16:33.646Z,75.46
2023-06-29T23:19:01.454Z,74.99
2023-06-29T23:21:28.540Z,75.16
2023-06-29T23:23:56.260Z,74.91
2023-06-29T23:26:23.686Z,75.82
2023-06-29T23:28:52.028Z,76.11
2023-06-29T23:31:19.612Z,75.93
2023-06-29T23:33:49.868Z,76.60
2023-06-29T23:36:22.663Z,76.54
2023-06-29T23:38:50.599Z,77.33
2023-06-29T23:41:20.163Z,77.71
2023-06-29T23:43:47.644Z,77.52
2023-06-29T23:46:14.871Z,78.22
2023-06-29T23:48:41.951Z,78.31
2023-06-29T23:51:12.586Z,78.71
2023-06-29T23:53:39.452Z,78.30
2023-06-29T23:56:06.185Z,78.83
2023-06-29T23:58:33.425Z,79.08
